createdAt,value
2018-07-22T00:00:59.137Z,55.91
2018-07-22T00:01:59.335Z,55.66
2018-07-22T00:02:59.531Z,56.88
2018-07-22T00:03:59.749Z,57.86
2018-07-22T00:04:59.971Z,60.30
2018-07-22T00:06:00.174Z,58.59
2018-07-22T00:07:00.386Z,57.37
2018-07-22T00:08:00.586Z,55.42
2018-07-22T00:09:00.790Z,56.64
2018-07-22T00:10:01.004Z,54.93
2018-07-22T00:11:01.189Z,50.05
2018-07-22T00:12:01.398Z,53.22
2018-07-22T00:13:01.588Z,58.11
2018-07-22T00:14:01.833Z,57.13
2018-07-22T00:15:02.010Z,56.88
2018-07-22T00:16:02.222Z,61.28
2018-07-22T00:17:02.451Z,60.55
2018-07-22T00:18:02.663Z,58.59
2018-07-22T00:19:02.874Z,62.01
2018-07-22T00:20:03.077Z,61.04
2018-07-22T00:21:03.284Z,61.28
2018-07-22T00:22:03.500Z,56.88
2018-07-22T00:23:03.693Z,57.62
2018-07-22T00:24:03.889Z,60.55
2018-07-22T00:25:04.095Z,60.79
2018-07-22T00:26:04.309Z,59.57
2018-07-22T00:27:04.520Z,55.91
2018-07-22T00:28:04.736Z,56.15
2018-07-22T00:29:04.989Z,59.57
2018-07-22T00:30:05.123Z,59.81
2018-07-22T00:31:05.425Z,59.81
2018-07-22T00:32:05.506Z,57.86
2018-07-22T00:33:05.700Z,56.88
2018-07-22T00:34:05.907Z,54.93
2018-07-22T00:35:06.122Z,56.15
2018-07-22T00:36:06.322Z,57.86
2018-07-22T00:37:06.532Z,57.86
2018-07-22T00:38:06.724Z,58.35
2018-07-22T00:39:06.912Z,56.40
2018-07-22T00:42:39.248Z,52.98
2018-07-22T00:43:39.463Z,53.96
2018-07-22T00:44:39.680Z,57.86
2018-07-22T00:45:39.867Z,59.81
2018-07-22T00:46:40.074Z,50.78
2018-07-22T00:47:40.287Z,60.06
2018-07-22T00:48:40.503Z,55.66
2018-07-22T00:49:40.715Z,54.44
2018-07-22T00:50:40.914Z,54.93
2018-07-22T00:51:41.136Z,56.88
2018-07-22T00:52:41.332Z,55.42
2018-07-22T00:53:41.546Z,52.00
2018-07-22T00:54:41.768Z,50.78
2018-07-22T00:55:41.980Z,51.03
2018-07-22T00:56:42.197Z,54.44
2018-07-22T00:57:42.397Z,57.86
2018-07-22T00:58:42.587Z,55.66
2018-07-22T00:59:42.783Z,58.11
2018-07-22T01:03:15.079Z,49.80
2018-07-22T01:04:15.277Z,53.22
2018-07-22T01:05:15.476Z,56.88
2018-07-22T01:06:15.674Z,54.93
2018-07-22T01:07:15.878Z,56.15
2018-07-22T01:08:16.084Z,55.66
2018-07-22T01:09:16.274Z,53.71
2018-07-22T01:10:16.485Z,52.98
2018-07-22T01:11:16.684Z,54.69
2018-07-22T01:12:16.893Z,52.49
2018-07-22T01:13:17.114Z,53.96
2018-07-22T01:14:17.318Z,56.88
2018-07-22T01:15:17.522Z,56.88
2018-07-22T01:16:17.710Z,53.96
2018-07-22T01:17:17.919Z,53.71
2018-07-22T01:18:18.132Z,53.47
2018-07-22T01:19:18.320Z,55.42
2018-07-22T01:20:18.546Z,55.18
2018-07-22T01:21:18.755Z,55.42
2018-07-22T01:22:18.967Z,51.27
2018-07-22T01:23:19.221Z,53.47
2018-07-22T01:24:19.436Z,54.44
2018-07-22T01:25:19.647Z,56.15
2018-07-22T01:26:19.864Z,53.96
2018-07-22T01:27:20.073Z,52.25
2018-07-22T01:28:20.274Z,55.91
2018-07-22T01:29:20.472Z,55.42
2018-07-22T01:30:20.664Z,55.91
2018-07-22T01:31:20.937Z,56.15
2018-07-22T01:32:21.012Z,58.84
2018-07-22T01:33:21.215Z,55.91
2018-07-22T01:34:21.426Z,54.69
2018-07-22T01:35:21.620Z,58.11
2018-07-22T01:36:21.806Z,54.44
2018-07-22T01:37:22.009Z,54.20
2018-07-22T01:38:22.205Z,59.08
2018-07-22T01:39:22.393Z,55.18
2018-07-22T01:40:22.617Z,55.91
2018-07-22T01:41:22.813Z,52.98
2018-07-22T01:42:23.024Z,52.49
2018-07-22T01:43:23.240Z,52.00
2018-07-22T01:44:23.428Z,55.91
2018-07-22T01:45:23.613Z,58.35
2018-07-22T01:46:23.830Z,55.18
2018-07-22T01:47:24.033Z,56.40
2018-07-22T01:48:24.249Z,55.91
2018-07-22T01:49:24.447Z,55.18
2018-07-22T01:50:24.633Z,54.20
2018-07-22T01:51:24.821Z,57.37
2018-07-22T01:52:25.030Z,57.86
2018-07-22T01:53:25.225Z,51.51
2018-07-22T01:54:25.437Z,55.91
2018-07-22T01:55:25.623Z,54.93
2018-07-22T01:58:57.623Z,59.81
2018-07-22T01:59:57.844Z,59.57
2018-07-22T02:00:58.045Z,56.40
2018-07-22T02:01:58.236Z,52.25
2018-07-22T02:02:58.438Z,53.47
2018-07-22T02:03:58.654Z,56.15
2018-07-22T02:04:58.854Z,55.42
2018-07-22T02:05:59.057Z,53.96
2018-07-22T02:06:59.247Z,55.91
2018-07-22T02:07:59.453Z,59.08
2018-07-22T02:08:59.663Z,54.44
2018-07-22T02:09:59.875Z,55.42
2018-07-22T02:11:00.082Z,56.64
2018-07-22T02:12:00.282Z,51.51
2018-07-22T02:13:00.488Z,52.73
2018-07-22T02:14:00.704Z,52.49
2018-07-22T02:15:00.914Z,57.37
2018-07-22T02:16:01.113Z,53.47
2018-07-22T02:17:01.334Z,52.98
2018-07-22T02:18:01.544Z,54.20
2018-07-22T02:19:01.743Z,54.20
2018-07-22T02:20:01.959Z,58.59
2018-07-22T02:21:02.162Z,55.91
2018-07-22T02:22:02.397Z,51.76
2018-07-22T02:23:02.598Z,52.73
2018-07-22T02:24:02.800Z,53.22
2018-07-22T02:25:03.014Z,53.71
2018-07-22T02:26:03.233Z,56.15
2018-07-22T02:27:03.425Z,60.06
2018-07-22T02:28:03.618Z,55.42
2018-07-22T02:29:03.825Z,55.18
2018-07-22T02:30:04.017Z,58.59
2018-07-22T02:31:04.236Z,54.44
2018-07-22T02:32:04.423Z,55.91
2018-07-22T02:33:04.609Z,53.71
2018-07-22T02:34:04.793Z,51.51
2018-07-22T02:35:05.000Z,53.96
2018-07-22T02:36:05.206Z,55.18
2018-07-22T02:37:05.415Z,52.73
2018-07-22T02:38:05.627Z,55.66
2018-07-22T02:39:05.822Z,55.42
2018-07-22T02:40:06.021Z,59.81
2018-07-22T02:41:06.231Z,52.73
2018-07-22T02:44:38.270Z,57.86
2018-07-22T02:45:38.488Z,56.88
2018-07-22T02:46:38.670Z,52.25
2018-07-22T02:47:38.883Z,56.88
2018-07-22T02:48:39.084Z,54.93
2018-07-22T02:49:39.278Z,52.73
2018-07-22T02:50:39.468Z,53.71
2018-07-22T02:51:39.673Z,51.76
2018-07-22T02:52:39.880Z,59.57
2018-07-22T02:53:40.094Z,55.66
2018-07-22T02:54:40.284Z,54.20
2018-07-22T02:55:40.471Z,55.91
2018-07-22T02:56:40.673Z,50.78
2018-07-22T02:57:40.882Z,56.40
2018-07-22T02:58:41.095Z,56.15
2018-07-22T02:59:41.317Z,54.20
2018-07-22T03:00:41.504Z,54.93
2018-07-22T03:01:41.712Z,57.37
2018-07-22T03:02:41.903Z,55.91
2018-07-22T03:03:42.119Z,55.91
2018-07-22T03:04:42.331Z,52.49
2018-07-22T03:05:42.539Z,57.37
2018-07-22T03:06:42.725Z,54.93
2018-07-22T03:07:42.924Z,55.66
2018-07-22T03:08:43.131Z,55.91
2018-07-22T03:12:15.473Z,54.69
2018-07-22T03:13:15.685Z,52.98
2018-07-22T03:14:15.901Z,52.00
2018-07-22T03:15:16.092Z,55.91
2018-07-22T03:16:16.303Z,51.76
2018-07-22T03:17:16.489Z,52.73
2018-07-22T03:18:16.683Z,56.88
2018-07-22T03:19:16.909Z,53.96
2018-07-22T03:20:17.117Z,53.71
2018-07-22T03:21:17.330Z,54.20
2018-07-22T03:22:17.542Z,58.84
2018-07-22T03:23:17.752Z,54.69
2018-07-22T03:24:17.952Z,56.64
2018-07-22T03:25:18.152Z,56.40
2018-07-22T03:26:18.343Z,54.93
2018-07-22T03:29:50.734Z,57.62
2018-07-22T03:30:50.935Z,57.37
2018-07-22T03:31:51.131Z,58.35
2018-07-22T03:32:51.409Z,56.40
2018-07-22T03:33:51.483Z,57.13
2018-07-22T03:34:51.680Z,56.40
2018-07-22T03:35:51.855Z,57.86
2018-07-22T03:36:52.055Z,52.73
2018-07-22T03:37:52.260Z,55.66
2018-07-22T03:38:52.452Z,56.88
2018-07-22T03:42:24.500Z,55.66
2018-07-22T03:43:24.699Z,54.44
2018-07-22T03:44:24.964Z,55.42
2018-07-22T03:45:25.045Z,54.44
2018-07-22T03:46:25.243Z,53.96
2018-07-22T03:47:25.455Z,57.37
2018-07-22T03:48:25.641Z,56.64
2018-07-22T03:49:25.833Z,55.66
2018-07-22T03:50:26.024Z,58.11
2018-07-22T03:51:26.228Z,56.64
2018-07-22T03:52:26.433Z,57.62
2018-07-22T03:53:26.648Z,54.93
2018-07-22T03:54:26.858Z,55.66
2018-07-22T03:55:27.102Z,56.88
2018-07-22T03:56:27.303Z,57.86
2018-07-22T03:57:27.509Z,57.86
2018-07-22T03:58:27.707Z,58.11
2018-07-22T03:59:27.900Z,60.06
2018-07-22T04:00:28.092Z,55.66
2018-07-22T04:01:28.280Z,58.59
2018-07-22T04:02:28.494Z,54.93
2018-07-22T04:03:28.679Z,54.69
2018-07-22T04:04:28.885Z,58.11
2018-07-22T04:05:29.077Z,56.64
2018-07-22T04:06:29.294Z,58.59
2018-07-22T04:07:29.506Z,55.66
2018-07-22T04:08:29.694Z,56.64
2018-07-22T04:09:29.920Z,57.86
2018-07-22T04:10:30.127Z,58.59
2018-07-22T04:11:30.312Z,59.08
2018-07-22T04:12:30.513Z,56.64
2018-07-22T04:13:30.705Z,58.35
2018-07-22T04:14:30.902Z,59.33
2018-07-22T04:15:31.090Z,58.11
2018-07-22T04:16:31.294Z,60.55
2018-07-22T04:17:31.497Z,67.38
2018-07-22T04:18:31.717Z,57.62
2018-07-22T04:19:31.924Z,57.37
2018-07-22T04:20:32.137Z,56.88
2018-07-22T04:21:32.402Z,60.30
2018-07-22T04:22:32.524Z,59.57
2018-07-22T04:26:04.854Z,59.81
2018-07-22T04:27:05.067Z,60.06
2018-07-22T04:28:05.276Z,58.35
2018-07-22T04:29:05.489Z,59.08
2018-07-22T04:30:05.691Z,60.30
2018-07-22T04:31:05.881Z,60.30
2018-07-22T04:32:06.082Z,58.11
2018-07-22T04:33:06.293Z,59.81
2018-07-22T04:34:06.497Z,58.84
2018-07-22T04:35:06.708Z,55.91
2018-07-22T04:36:06.894Z,58.59
2018-07-22T04:37:07.093Z,58.35
2018-07-22T04:38:07.400Z,58.35
2018-07-22T04:39:07.475Z,56.15
2018-07-22T04:40:07.684Z,57.62
2018-07-22T04:41:07.901Z,58.59
2018-07-22T04:42:08.084Z,60.30
2018-07-22T04:43:08.298Z,56.40
2018-07-22T04:44:08.507Z,61.04
2018-07-22T04:45:08.707Z,60.55
2018-07-22T04:46:08.914Z,57.37
2018-07-22T04:47:09.102Z,57.62
2018-07-22T04:48:09.311Z,58.59
2018-07-22T04:49:09.529Z,61.52
2018-07-22T04:52:42.016Z,56.40
2018-07-22T04:53:42.218Z,59.81
2018-07-22T04:54:42.421Z,57.37
2018-07-22T04:55:42.612Z,58.11
2018-07-22T04:56:42.811Z,57.13
2018-07-22T04:57:43.023Z,59.08
2018-07-22T05:01:15.384Z,59.57
2018-07-22T05:02:15.598Z,56.88
2018-07-22T05:03:15.808Z,60.30
2018-07-22T05:04:16.000Z,58.84
2018-07-22T05:07:48.375Z,58.84
2018-07-22T05:08:48.586Z,59.57
2018-07-22T05:09:48.794Z,64.70
2018-07-22T05:10:48.978Z,60.30
2018-07-22T05:11:49.175Z,59.81
2018-07-22T05:12:49.383Z,60.55
2018-07-22T05:13:49.584Z,59.81
2018-07-22T05:14:49.768Z,58.35
2018-07-22T05:15:49.971Z,60.79
2018-07-22T05:16:50.168Z,59.81
2018-07-22T05:17:50.361Z,57.13
2018-07-22T05:18:50.553Z,62.99
2018-07-22T05:19:50.761Z,59.81
2018-07-22T05:20:50.973Z,57.86
2018-07-22T05:21:51.174Z,57.86
2018-07-22T05:22:51.380Z,57.62
2018-07-22T05:23:51.585Z,59.81
2018-07-22T05:24:51.795Z,58.35
2018-07-22T05:25:51.984Z,57.86
2018-07-22T05:26:52.203Z,57.13
2018-07-22T05:27:52.403Z,57.13
2018-07-22T05:28:52.616Z,56.88
2018-07-22T05:29:52.858Z,58.59
2018-07-22T05:30:53.058Z,57.37
2018-07-22T05:31:53.248Z,58.84
2018-07-22T05:32:53.441Z,58.11
2018-07-22T05:33:53.638Z,59.57
2018-07-22T05:34:53.827Z,56.64
2018-07-22T05:35:54.014Z,58.11
2018-07-22T05:36:54.218Z,59.57
2018-07-22T05:37:54.406Z,58.11
2018-07-22T05:38:54.608Z,60.30
2018-07-22T05:39:54.834Z,60.55
2018-07-22T05:40:55.030Z,59.81
2018-07-22T05:41:55.238Z,62.50
2018-07-22T05:42:55.427Z,59.81
2018-07-22T05:43:55.633Z,60.06
2018-07-22T05:44:55.840Z,59.81
2018-07-22T05:45:56.045Z,61.52
2018-07-22T05:46:56.250Z,61.04
2018-07-22T05:47:56.436Z,58.59
2018-07-22T05:48:56.644Z,57.62
2018-07-22T05:49:56.848Z,57.86
2018-07-22T05:50:57.045Z,58.59
2018-07-22T05:51:57.315Z,60.30
2018-07-22T05:52:57.384Z,59.81
2018-07-22T05:53:57.623Z,60.06
2018-07-22T05:54:57.772Z,60.06
2018-07-22T05:55:57.965Z,60.06
2018-07-22T05:56:58.166Z,58.11
2018-07-22T05:57:58.391Z,60.06
2018-07-22T05:58:58.597Z,57.62
2018-07-22T05:59:58.802Z,60.55
2018-07-22T06:00:59.014Z,58.59
2018-07-22T06:01:59.210Z,61.77
2018-07-22T06:02:59.489Z,59.57
2018-07-22T06:03:59.577Z,60.55
2018-07-22T06:04:59.764Z,60.30
2018-07-22T06:05:59.973Z,58.59
2018-07-22T06:09:31.973Z,59.08
2018-07-22T06:10:32.180Z,56.88
2018-07-22T06:11:32.373Z,57.86
2018-07-22T06:12:32.567Z,56.88
2018-07-22T06:13:32.776Z,57.86
2018-07-22T06:14:33.070Z,59.08
2018-07-22T06:15:33.136Z,62.01
2018-07-22T06:16:33.360Z,57.13
2018-07-22T06:17:33.566Z,57.62
2018-07-22T06:18:33.747Z,56.64
2018-07-22T06:19:33.937Z,59.08
2018-07-22T06:20:34.154Z,56.40
2018-07-22T06:21:34.357Z,57.86
2018-07-22T06:22:34.551Z,56.40
2018-07-22T06:26:06.876Z,59.08
2018-07-22T06:27:07.075Z,56.40
2018-07-22T06:28:07.292Z,57.37
2018-07-22T06:29:07.488Z,58.35
2018-07-22T06:30:07.689Z,60.06
2018-07-22T06:31:07.900Z,57.86
2018-07-22T06:32:08.093Z,59.33
2018-07-22T06:33:08.284Z,60.55
2018-07-22T06:34:08.478Z,58.35
2018-07-22T06:35:08.704Z,59.33
2018-07-22T06:36:08.897Z,58.11
2018-07-22T06:37:09.090Z,68.12
2018-07-22T06:38:09.299Z,58.84
2018-07-22T06:39:09.530Z,60.30
2018-07-22T06:40:09.747Z,58.59
2018-07-22T06:41:09.971Z,60.30
2018-07-22T06:42:10.140Z,60.30
2018-07-22T06:43:10.342Z,58.35
2018-07-22T06:44:10.533Z,58.84
2018-07-22T06:45:10.756Z,58.35
2018-07-22T06:46:10.981Z,59.57
2018-07-22T06:47:11.174Z,59.33
2018-07-22T06:48:11.389Z,58.59
2018-07-22T06:49:11.574Z,57.13
2018-07-22T06:50:11.807Z,56.88
2018-07-22T06:51:11.993Z,57.13
2018-07-22T06:52:12.195Z,60.06
2018-07-22T06:53:12.390Z,62.26
2018-07-22T06:54:12.634Z,57.86
2018-07-22T06:55:12.780Z,58.35
2018-07-22T06:56:12.980Z,57.62
2018-07-22T06:57:13.237Z,62.01
2018-07-22T06:58:13.396Z,57.37
2018-07-22T06:59:13.591Z,58.35
2018-07-22T07:00:13.784Z,60.06
2018-07-22T07:01:13.986Z,60.55
2018-07-22T07:02:14.201Z,61.04
2018-07-22T07:03:14.418Z,57.37
2018-07-22T07:04:14.606Z,57.62
2018-07-22T07:05:14.860Z,59.57
2018-07-22T07:06:15.002Z,57.86
2018-07-22T07:07:15.209Z,58.84
2018-07-22T07:08:15.517Z,60.30
2018-07-22T07:09:15.587Z,59.08
2018-07-22T07:10:15.778Z,57.62
2018-07-22T07:11:15.970Z,58.84
2018-07-22T07:12:16.192Z,58.11
2018-07-22T07:13:16.378Z,58.11
2018-07-22T07:14:16.599Z,58.59
2018-07-22T07:15:16.785Z,58.59
2018-07-22T07:16:16.982Z,57.62
2018-07-22T07:17:17.182Z,60.30
2018-07-22T07:18:17.402Z,56.88
2018-07-22T07:19:17.622Z,58.11
2018-07-22T07:20:17.821Z,59.57
2018-07-22T07:21:18.042Z,62.74
2018-07-22T07:22:18.253Z,57.62
2018-07-22T07:23:18.445Z,58.84
2018-07-22T07:24:18.660Z,58.11
2018-07-22T07:25:18.868Z,59.08
2018-07-22T07:26:19.088Z,58.59
2018-07-22T07:27:19.274Z,59.57
2018-07-22T07:28:19.488Z,59.57
2018-07-22T07:29:19.705Z,58.59
2018-07-22T07:30:19.896Z,57.86
2018-07-22T07:31:20.092Z,58.11
2018-07-22T07:32:20.280Z,57.62
2018-07-22T07:33:20.472Z,59.33
2018-07-22T07:34:20.707Z,58.35
2018-07-22T07:35:20.908Z,58.84
2018-07-22T07:36:21.121Z,58.11
2018-07-22T07:37:21.314Z,59.33
2018-07-22T07:38:21.507Z,58.11
2018-07-22T07:39:21.699Z,60.06
2018-07-22T07:40:21.902Z,59.81
2018-07-22T07:41:22.109Z,58.84
2018-07-22T07:42:22.348Z,60.06
2018-07-22T07:43:22.524Z,59.33
2018-07-22T07:44:22.721Z,59.57
2018-07-22T07:45:22.912Z,58.84
2018-07-22T07:46:23.142Z,57.86
2018-07-22T07:47:23.357Z,59.08
2018-07-22T07:48:23.550Z,62.01
2018-07-22T07:49:23.763Z,58.84
2018-07-22T07:50:23.962Z,57.62
2018-07-22T07:51:24.174Z,58.84
2018-07-22T07:52:24.400Z,59.81
2018-07-22T07:53:24.651Z,58.59
2018-07-22T07:54:24.831Z,59.57
2018-07-22T07:55:25.023Z,59.81
2018-07-22T07:56:25.236Z,60.79
2018-07-22T07:57:25.450Z,60.30
2018-07-22T07:58:25.667Z,59.57
2018-07-22T07:59:25.877Z,59.33
2018-07-22T08:00:26.065Z,59.57
2018-07-22T08:01:26.289Z,58.59
2018-07-22T08:02:26.497Z,60.79
2018-07-22T08:03:26.691Z,59.81
2018-07-22T08:04:26.901Z,58.59
2018-07-22T08:05:27.137Z,59.33
2018-07-22T08:06:27.313Z,60.06
2018-07-22T08:07:27.560Z,58.11
2018-07-22T08:08:27.765Z,58.11
2018-07-22T08:09:27.974Z,59.33
2018-07-22T08:10:28.186Z,56.88
2018-07-22T08:11:28.404Z,59.08
2018-07-22T08:12:28.617Z,64.94
2018-07-22T08:13:28.829Z,64.21
2018-07-22T08:14:29.042Z,59.57
2018-07-22T08:15:29.263Z,59.81
2018-07-22T08:16:29.485Z,62.01
2018-07-22T08:17:29.688Z,60.06
2018-07-22T08:18:29.883Z,59.33
2018-07-22T08:19:30.098Z,58.59
2018-07-22T08:20:30.290Z,59.33
2018-07-22T08:21:30.566Z,59.33
2018-07-22T08:22:30.729Z,58.35
2018-07-22T08:23:30.953Z,57.86
2018-07-22T08:24:31.160Z,57.13
2018-07-22T08:25:31.346Z,59.33
2018-07-22T08:26:31.596Z,59.08
2018-07-22T08:27:31.667Z,59.08
2018-07-22T08:28:31.870Z,60.30
2018-07-22T08:29:32.093Z,59.57
2018-07-22T08:30:32.371Z,61.28
2018-07-22T08:31:32.495Z,58.59
2018-07-22T08:32:32.716Z,59.08
2018-07-22T08:33:33.005Z,60.06
2018-07-22T08:34:33.088Z,60.06
2018-07-22T08:35:33.285Z,59.08
2018-07-22T08:36:33.477Z,63.72
2018-07-22T08:37:33.670Z,58.59
2018-07-22T08:38:33.879Z,60.30
2018-07-22T08:39:34.069Z,61.52
2018-07-22T08:40:34.273Z,60.55
2018-07-22T08:41:34.527Z,60.79
2018-07-22T08:42:34.653Z,59.81
2018-07-22T08:43:34.864Z,59.81
2018-07-22T08:44:35.089Z,60.06
2018-07-22T08:45:35.317Z,60.06
2018-07-22T08:46:35.520Z,59.81
2018-07-22T08:47:35.765Z,60.06
2018-07-22T08:48:35.954Z,60.79
2018-07-22T08:49:36.163Z,60.55
2018-07-22T08:50:36.378Z,60.55
2018-07-22T08:51:36.569Z,61.28
2018-07-22T08:52:36.773Z,59.57
2018-07-22T08:53:36.994Z,62.26
2018-07-22T08:54:37.211Z,60.79
2018-07-22T08:55:37.406Z,60.30
2018-07-22T08:56:37.625Z,60.06
2018-07-22T08:57:37.831Z,60.30
2018-07-22T08:58:38.052Z,60.79
2018-07-22T08:59:38.262Z,61.04
2018-07-22T09:00:38.480Z,60.79
2018-07-22T09:01:38.686Z,59.33
2018-07-22T09:02:38.900Z,59.57
2018-07-22T09:03:39.095Z,59.08
2018-07-22T09:04:39.302Z,60.79
2018-07-22T09:05:39.531Z,60.06
2018-07-22T09:06:39.743Z,58.84
2018-07-22T09:07:39.943Z,60.06
2018-07-22T09:08:40.152Z,60.79
2018-07-22T09:09:40.364Z,62.74
2018-07-22T09:10:40.577Z,60.79
2018-07-22T09:11:40.779Z,62.26
2018-07-22T09:12:40.969Z,59.33
2018-07-22T09:13:41.186Z,60.79
2018-07-22T09:14:41.388Z,60.55
2018-07-22T09:15:41.608Z,60.30
2018-07-22T09:16:41.810Z,60.30
2018-07-22T09:17:42.031Z,61.52
2018-07-22T09:18:42.226Z,62.01
2018-07-22T09:19:42.439Z,59.81
2018-07-22T09:20:42.628Z,61.28
2018-07-22T09:21:42.819Z,59.33
2018-07-22T09:22:43.004Z,61.04
2018-07-22T09:23:43.221Z,61.04
2018-07-22T09:24:43.428Z,60.79
2018-07-22T09:25:43.645Z,60.55
2018-07-22T09:26:43.837Z,61.52
2018-07-22T09:27:44.044Z,60.30
2018-07-22T09:28:44.247Z,62.01
2018-07-22T09:29:44.451Z,62.50
2018-07-22T09:30:44.646Z,60.06
2018-07-22T09:31:44.841Z,61.52
2018-07-22T09:32:45.055Z,61.52
2018-07-22T09:36:17.632Z,59.81
2018-07-22T09:37:17.641Z,61.77
2018-07-22T09:38:17.849Z,61.04
2018-07-22T09:39:18.074Z,60.06
2018-07-22T09:40:18.284Z,62.26
2018-07-22T09:41:18.490Z,62.26
2018-07-22T09:42:18.703Z,62.99
2018-07-22T09:43:18.923Z,61.52
2018-07-22T09:44:19.143Z,60.79
2018-07-22T09:45:19.341Z,62.50
2018-07-22T09:48:51.667Z,61.28
2018-07-22T09:49:51.876Z,61.28
2018-07-22T09:50:52.073Z,62.50
2018-07-22T09:51:52.283Z,61.04
2018-07-22T09:52:52.484Z,61.52
2018-07-22T09:53:52.680Z,62.99
2018-07-22T09:54:52.874Z,61.77
2018-07-22T09:55:53.076Z,61.04
2018-07-22T09:56:53.280Z,62.74
2018-07-22T09:57:53.505Z,62.99
2018-07-22T09:58:53.695Z,61.52
2018-07-22T09:59:53.896Z,61.52
2018-07-22T10:00:54.088Z,62.01
2018-07-22T10:01:54.297Z,60.30
2018-07-22T10:02:54.513Z,61.52
2018-07-22T10:03:54.726Z,62.01
2018-07-22T10:04:54.999Z,61.04
2018-07-22T10:05:55.156Z,61.04
2018-07-22T10:06:55.360Z,60.30
2018-07-22T10:07:55.562Z,60.79
2018-07-22T10:08:55.754Z,60.79
2018-07-22T10:09:55.947Z,59.33
2018-07-22T10:10:56.162Z,60.79
2018-07-22T10:11:56.360Z,61.28
2018-07-22T10:12:56.582Z,61.77
2018-07-22T10:16:28.912Z,61.77
2018-07-22T10:17:29.151Z,62.01
2018-07-22T10:18:29.358Z,60.55
2018-07-22T10:19:29.570Z,60.30
2018-07-22T10:20:29.774Z,61.04
2018-07-22T10:21:29.975Z,61.28
2018-07-22T10:22:30.182Z,64.70
2018-07-22T10:23:30.464Z,65.43
2018-07-22T10:24:30.583Z,59.81
2018-07-22T10:25:30.799Z,62.50
2018-07-22T10:26:30.995Z,63.96
2018-07-22T10:27:31.212Z,60.55
2018-07-22T10:28:31.435Z,61.04
2018-07-22T10:29:31.634Z,62.01
2018-07-22T10:30:31.838Z,59.33
2018-07-22T10:31:32.039Z,59.81
2018-07-22T10:32:32.237Z,60.79
2018-07-22T10:33:32.453Z,61.04
2018-07-22T10:34:32.689Z,64.94
2018-07-22T10:35:32.892Z,65.43
2018-07-22T10:36:33.108Z,60.55
2018-07-22T10:37:33.329Z,60.06
2018-07-22T10:38:33.544Z,58.35
2018-07-22T10:39:33.745Z,59.57
2018-07-22T10:40:33.966Z,58.35
2018-07-22T10:41:34.176Z,61.04
2018-07-22T10:42:34.402Z,62.26
2018-07-22T10:43:34.598Z,62.01
2018-07-22T10:44:34.796Z,62.50
2018-07-22T10:45:34.983Z,59.57
2018-07-22T10:46:35.204Z,60.79
2018-07-22T10:47:35.415Z,63.96
2018-07-22T10:51:07.826Z,62.01
2018-07-22T10:52:08.040Z,65.43
2018-07-22T10:53:08.240Z,60.79
2018-07-22T10:54:08.447Z,60.79
2018-07-22T10:55:08.675Z,60.30
2018-07-22T10:56:08.875Z,59.57
2018-07-22T10:57:09.093Z,61.52
2018-07-22T10:58:09.317Z,59.81
2018-07-22T10:59:09.523Z,62.50
2018-07-22T11:00:09.758Z,59.81
2018-07-22T11:01:09.981Z,60.06
2018-07-22T11:02:10.216Z,61.04
2018-07-22T11:03:10.452Z,62.50
2018-07-22T11:04:10.644Z,60.55
2018-07-22T11:07:42.664Z,60.79
2018-07-22T11:08:42.846Z,60.55
2018-07-22T11:09:43.041Z,60.55
2018-07-22T11:10:43.246Z,64.70
2018-07-22T11:11:43.446Z,65.67
2018-07-22T11:12:43.662Z,60.30
2018-07-22T11:13:43.897Z,61.52
2018-07-22T11:14:44.193Z,61.28
2018-07-22T11:15:44.311Z,60.55
2018-07-22T11:16:44.514Z,65.92
2018-07-22T11:17:44.721Z,59.81
2018-07-22T11:21:17.007Z,60.79
2018-07-22T11:22:17.207Z,60.79
2018-07-22T11:23:17.405Z,61.28
2018-07-22T11:24:17.624Z,61.04
2018-07-22T11:25:17.818Z,61.77
2018-07-22T11:26:18.021Z,60.79
2018-07-22T11:27:18.237Z,60.30
2018-07-22T11:28:18.428Z,60.79
2018-07-22T11:29:18.627Z,60.06
2018-07-22T11:30:18.825Z,60.79
2018-07-22T11:31:19.027Z,61.04
2018-07-22T11:32:19.245Z,59.08
2018-07-22T11:33:19.476Z,58.84
2018-07-22T11:34:19.677Z,59.33
2018-07-22T11:35:19.873Z,59.81
2018-07-22T11:36:20.106Z,60.55
2018-07-22T11:37:20.322Z,60.79
2018-07-22T11:38:20.535Z,61.52
2018-07-22T11:39:20.737Z,62.50
2018-07-22T11:40:20.962Z,63.72
2018-07-22T11:43:53.005Z,60.06
2018-07-22T11:44:53.191Z,62.99
2018-07-22T11:45:53.408Z,61.28
2018-07-22T11:46:53.617Z,62.01
2018-07-22T11:47:53.832Z,61.52
2018-07-22T11:48:54.041Z,62.26
2018-07-22T11:49:54.243Z,62.74
2018-07-22T11:50:54.457Z,62.26
2018-07-22T11:51:54.684Z,62.26
2018-07-22T11:52:54.887Z,62.01
2018-07-22T11:53:55.096Z,61.04
2018-07-22T11:54:55.312Z,62.01
2018-07-22T11:55:55.533Z,60.79
2018-07-22T11:56:55.748Z,60.55
2018-07-22T11:57:55.954Z,60.55
2018-07-22T11:58:56.175Z,60.79
2018-07-22T11:59:56.375Z,62.26
2018-07-22T12:00:56.592Z,60.55
2018-07-22T12:01:56.810Z,61.77
2018-07-22T12:02:57.035Z,61.28
2018-07-22T12:03:57.249Z,61.52
2018-07-22T12:04:57.474Z,61.28
2018-07-22T12:05:57.714Z,62.99
2018-07-22T12:06:57.920Z,62.50
2018-07-22T12:07:58.138Z,60.30
2018-07-22T12:08:58.351Z,60.55
2018-07-22T12:09:58.544Z,61.28
2018-07-22T12:10:58.764Z,60.55
2018-07-22T12:11:58.984Z,59.57
2018-07-22T12:12:59.203Z,60.06
2018-07-22T12:13:59.427Z,61.28
2018-07-22T12:14:59.618Z,59.33
2018-07-22T12:15:59.834Z,60.06
2018-07-22T12:17:00.049Z,61.52
2018-07-22T12:18:00.265Z,62.01
2018-07-22T12:19:00.464Z,62.99
2018-07-22T12:20:00.671Z,62.50
2018-07-22T12:21:00.891Z,62.99
2018-07-22T12:22:01.088Z,61.52
2018-07-22T12:23:01.307Z,62.26
2018-07-22T12:24:01.521Z,69.58
2018-07-22T12:25:01.742Z,61.28
2018-07-22T12:26:01.964Z,62.01
2018-07-22T12:27:02.157Z,62.50
2018-07-22T12:28:02.369Z,63.23
2018-07-22T12:29:02.585Z,62.99
2018-07-22T12:30:02.753Z,60.79
2018-07-22T12:31:02.944Z,61.77
2018-07-22T12:32:03.178Z,63.72
2018-07-22T12:33:03.409Z,66.16
2018-07-22T12:34:03.614Z,61.28
2018-07-22T12:35:03.824Z,62.01
2018-07-22T12:36:04.043Z,71.29
2018-07-22T12:37:04.257Z,62.26
2018-07-22T12:38:04.460Z,60.79
2018-07-22T12:39:04.655Z,63.72
2018-07-22T12:40:04.881Z,65.43
2018-07-22T12:41:05.168Z,62.01
2018-07-22T12:42:05.259Z,64.21
2018-07-22T12:43:05.487Z,63.23
2018-07-22T12:44:05.705Z,62.26
2018-07-22T12:45:05.911Z,62.26
2018-07-22T12:46:06.113Z,59.81
2018-07-22T12:47:06.337Z,58.84
2018-07-22T12:48:06.530Z,61.52
2018-07-22T12:49:06.726Z,61.04
2018-07-22T12:50:06.925Z,62.26
2018-07-22T12:51:07.126Z,63.72
2018-07-22T12:52:07.324Z,62.50
2018-07-22T12:53:07.537Z,63.96
2018-07-22T12:54:07.746Z,60.30
2018-07-22T12:55:07.942Z,61.04
2018-07-22T12:56:08.150Z,60.06
2018-07-22T12:57:08.352Z,61.28
2018-07-22T12:58:08.571Z,62.50
2018-07-22T12:59:08.840Z,61.04
2018-07-22T13:00:08.999Z,63.48
2018-07-22T13:01:09.195Z,62.50
2018-07-22T13:02:09.388Z,65.92
2018-07-22T13:03:09.597Z,62.26
2018-07-22T13:04:09.816Z,63.23
2018-07-22T13:05:10.036Z,61.28
2018-07-22T13:06:10.259Z,60.55
2018-07-22T13:07:10.475Z,62.01
2018-07-22T13:08:10.687Z,63.48
2018-07-22T13:09:10.888Z,62.99
2018-07-22T13:10:11.103Z,60.06
2018-07-22T13:11:11.299Z,61.04
2018-07-22T13:12:11.517Z,62.01
2018-07-22T13:13:11.797Z,67.87
2018-07-22T13:14:11.934Z,61.52
2018-07-22T13:15:12.155Z,60.79
2018-07-22T13:16:12.378Z,65.92
2018-07-22T13:17:12.594Z,60.79
2018-07-22T13:18:12.792Z,61.04
2018-07-22T13:19:13.015Z,61.77
2018-07-22T13:20:13.214Z,61.28
2018-07-22T13:21:13.434Z,61.04
2018-07-22T13:22:13.628Z,62.74
2018-07-22T13:23:13.841Z,63.72
2018-07-22T13:24:14.053Z,61.77
2018-07-22T13:25:14.269Z,62.01
2018-07-22T13:26:14.484Z,61.52
2018-07-22T13:27:14.690Z,60.55
2018-07-22T13:28:14.927Z,60.55
2018-07-22T13:29:15.151Z,60.55
2018-07-22T13:30:15.375Z,60.30
2018-07-22T13:31:15.584Z,61.52
2018-07-22T13:32:15.787Z,61.28
2018-07-22T13:33:15.980Z,61.28
2018-07-22T13:34:16.198Z,60.55
2018-07-22T13:35:16.422Z,62.74
2018-07-22T13:36:16.618Z,60.06
2018-07-22T13:37:16.812Z,61.04
2018-07-22T13:38:17.091Z,60.79
2018-07-22T13:39:17.217Z,62.99
2018-07-22T13:42:49.176Z,59.57
2018-07-22T13:43:49.393Z,61.77
2018-07-22T13:44:49.585Z,60.06
2018-07-22T13:45:49.784Z,59.57
2018-07-22T13:46:49.991Z,59.57
2018-07-22T13:47:50.184Z,60.55
2018-07-22T13:48:50.395Z,60.79